createdAt,value
2023-05-06T00:00:13.183Z,4.05
2023-05-06T00:01:44.859Z,4.32
2023-05-06T00:03:17.892Z,4.75
2023-05-06T00:04:49.634Z,5.30
2023-05-06T00:06:21.286Z,4.15
2023-05-06T00:07:52.958Z,4.25
2023-05-06T00:09:24.567Z,4.47
2023-05-06T00:10:56.289Z,4.78
2023-05-06T00:12:28.041Z,4.32
2023-05-06T00:13:59.631Z,4.63
2023-05-06T00:15:32.289Z,4.40
2023-05-06T00:17:03.989Z,4.88
2023-05-06T00:18:36.939Z,4.75
2023-05-06T00:20:10.459Z,4.70
2023-05-06T00:21:42.091Z,4.55
2023-05-06T00:23:13.695Z,5.10
2023-05-06T00:24:45.310Z,4.85
2023-05-06T00:26:16.932Z,4.20
2023-05-06T00:27:48.757Z,4.60
2023-05-06T00:29:20.383Z,4.60
2023-05-06T00:30:51.995Z,4.63
2023-05-06T00:32:23.579Z,4.30
2023-05-06T00:33:56.727Z,4.38
2023-05-06T00:35:28.570Z,4.75
2023-05-06T00:37:00.301Z,4.65
2023-05-06T00:38:31.913Z,4.43
2023-05-06T00:40:04.117Z,5.05
2023-05-06T00:41:35.756Z,5.00
2023-05-06T00:43:07.529Z,5.15
2023-05-06T00:44:39.192Z,5.18
2023-05-06T00:46:11.533Z,4.53
2023-05-06T00:47:43.246Z,4.72
2023-05-06T00:49:16.258Z,5.03
2023-05-06T00:50:47.894Z,5.00
2023-05-06T00:52:19.508Z,4.60
2023-05-06T00:53:51.410Z,5.22
2023-05-06T00:55:23.074Z,4.95
2023-05-06T00:56:54.761Z,5.05
2023-05-06T00:58:26.409Z,4.70
2023-05-06T00:59:58.012Z,5.28
2023-05-06T01:01:30.806Z,4.88
2023-05-06T01:03:02.575Z,4.72
2023-05-06T01:04:36.059Z,4.95
2023-05-06T01:06:11.460Z,4.38
2023-05-06T01:07:46.416Z,5.18
2023-05-06T01:09:20.870Z,5.30
2023-05-06T01:10:53.651Z,4.80
2023-05-06T01:12:29.140Z,5.25
2023-05-06T01:14:02.322Z,5.13
2023-05-06T01:15:35.809Z,4.75
2023-05-06T01:17:09.710Z,5.10
2023-05-06T01:18:41.414Z,5.00
2023-05-06T01:20:15.353Z,5.22
2023-05-06T01:21:47.028Z,4.75
2023-05-06T01:23:20.031Z,4.65
2023-05-06T01:24:51.630Z,4.40
2023-05-06T01:26:23.312Z,5.03
2023-05-06T01:27:54.903Z,4.80
2023-05-06T01:29:26.560Z,4.82
2023-05-06T01:30:59.570Z,4.43
2023-05-06T01:32:41.745Z,4.85
2023-05-06T01:34:15.546Z,4.75
2023-05-06T01:35:52.800Z,4.57
2023-05-06T01:37:28.774Z,4.72
2023-05-06T01:39:08.719Z,5.13
2023-05-06T01:40:40.320Z,4.55
2023-05-06T01:42:12.006Z,4.60
2023-05-06T01:43:44.285Z,4.40
2023-05-06T01:45:16.628Z,5.20
2023-05-06T01:46:48.323Z,5.22
2023-05-06T01:48:20.256Z,4.55
2023-05-06T01:49:52.018Z,4.63
2023-05-06T01:51:23.742Z,7.63
2023-05-06T01:52:59.014Z,5.72
2023-05-06T01:54:32.125Z,5.10
2023-05-06T01:56:04.109Z,5.30
2023-05-06T01:57:35.848Z,5.25
2023-05-06T01:59:07.577Z,5.47
2023-05-06T02:00:39.623Z,5.00
2023-05-06T02:02:11.247Z,4.60
2023-05-06T02:03:42.956Z,5.25
2023-05-06T02:05:14.574Z,5.03
2023-05-06T02:06:46.210Z,5.05
2023-05-06T02:08:17.868Z,5.22
2023-05-06T02:09:50.871Z,4.68
2023-05-06T02:11:22.477Z,4.95
2023-05-06T02:12:54.164Z,6.05
2023-05-06T02:14:25.849Z,5.55
2023-05-06T02:15:57.480Z,5.65
2023-05-06T02:17:29.180Z,5.18
2023-05-06T02:19:00.860Z,5.55
2023-05-06T02:20:32.488Z,5.38
2023-05-06T02:22:04.079Z,5.10
2023-05-06T02:23:35.836Z,5.40
2023-05-06T02:25:09.707Z,5.53
2023-05-06T02:26:41.528Z,6.13
2023-05-06T02:28:13.133Z,7.30
2023-05-06T02:29:44.824Z,6.72
2023-05-06T02:31:16.479Z,5.95
2023-05-06T02:32:48.165Z,6.00
2023-05-06T02:34:19.763Z,5.72
2023-05-06T02:35:51.435Z,5.60
2023-05-06T02:37:23.489Z,5.50
2023-05-06T02:38:55.111Z,6.00
2023-05-06T02:40:28.133Z,6.43
2023-05-06T02:41:59.745Z,6.28
2023-05-06T02:43:31.407Z,6.28
2023-05-06T02:45:03.456Z,5.88
2023-05-06T02:46:35.059Z,6.38
2023-05-06T02:48:06.680Z,5.60
2023-05-06T02:49:38.319Z,6.32
2023-05-06T02:51:09.973Z,5.43
2023-05-06T02:52:41.706Z,5.90
2023-05-06T02:54:13.330Z,6.68
2023-05-06T02:55:46.543Z,6.55
2023-05-06T02:57:18.452Z,6.35
2023-05-06T02:58:50.069Z,5.68
2023-05-06T03:00:21.844Z,5.82
2023-05-06T03:01:53.462Z,6.13
2023-05-06T03:03:25.098Z,6.68
2023-05-06T03:04:56.759Z,6.38
2023-05-06T03:06:28.777Z,6.18
2023-05-06T03:08:00.550Z,5.65
2023-05-06T03:09:32.199Z,5.60
2023-05-06T03:11:07.335Z,5.85
2023-05-06T03:12:39.852Z,5.60
2023-05-06T03:14:22.046Z,6.63
2023-05-06T03:15:56.552Z,6.63
2023-05-06T03:17:28.214Z,6.63
2023-05-06T03:19:00.204Z,6.10
2023-05-06T03:20:31.925Z,7.32
2023-05-06T03:22:03.556Z,5.68
2023-05-06T03:23:35.149Z,5.60
2023-05-06T03:25:07.685Z,5.97
2023-05-06T03:26:41.159Z,5.82
2023-05-06T03:28:12.831Z,5.57
2023-05-06T03:29:44.426Z,5.85
2023-05-06T03:31:16.135Z,6.05
2023-05-06T03:32:48.628Z,6.53
2023-05-06T03:34:20.365Z,5.88
2023-05-06T03:35:52.169Z,5.90
2023-05-06T03:37:23.904Z,5.88
2023-05-06T03:38:55.480Z,5.90
2023-05-06T03:40:27.550Z,6.10
2023-05-06T03:42:01.034Z,6.07
2023-05-06T03:43:32.855Z,7.18
2023-05-06T03:45:06.485Z,5.78
2023-05-06T03:46:39.168Z,5.40
2023-05-06T03:48:10.879Z,5.93
2023-05-06T03:49:42.508Z,6.18
2023-05-06T03:51:14.114Z,5.53
2023-05-06T03:52:45.744Z,5.78
2023-05-06T03:54:17.366Z,5.60
2023-05-06T03:55:49.009Z,6.30
2023-05-06T03:57:22.169Z,7.10
2023-05-06T03:58:56.962Z,6.40
2023-05-06T04:00:28.636Z,6.88
2023-05-06T04:02:00.415Z,6.30
2023-05-06T04:03:32.179Z,6.05
2023-05-06T04:05:04.375Z,6.90
2023-05-06T04:06:36.099Z,6.00
2023-05-06T04:08:07.806Z,5.93
2023-05-06T04:09:39.434Z,5.90
2023-05-06T04:11:11.496Z,6.00
2023-05-06T04:12:44.519Z,5.85
2023-05-06T04:14:16.149Z,5.97
2023-05-06T04:15:48.757Z,5.63
2023-05-06T04:17:20.426Z,6.03
2023-05-06T04:18:52.792Z,6.30
2023-05-06T04:20:24.423Z,6.50
2023-05-06T04:21:56.534Z,6.95
2023-05-06T04:23:28.359Z,6.00
2023-05-06T04:25:02.678Z,6.13
2023-05-06T04:26:34.719Z,5.75
2023-05-06T04:28:08.809Z,5.82
2023-05-06T04:29:40.476Z,6.30
2023-05-06T04:31:14.415Z,6.40
2023-05-06T04:32:46.685Z,6.78
2023-05-06T04:34:18.332Z,6.20
2023-05-06T04:35:50.550Z,6.13
2023-05-06T04:37:22.440Z,6.30
2023-05-06T04:38:54.060Z,6.40
2023-05-06T04:40:27.511Z,6.28
2023-05-06T04:41:59.194Z,6.43
2023-05-06T04:43:32.822Z,6.03
2023-05-06T04:45:05.546Z,6.40
2023-05-06T04:46:37.182Z,6.50
2023-05-06T04:48:09.755Z,5.78
2023-05-06T04:49:41.664Z,6.32
2023-05-06T04:51:13.354Z,6.05
2023-05-06T04:52:45.116Z,5.97
2023-05-06T04:54:16.740Z,6.07
2023-05-06T04:55:48.361Z,6.18
2023-05-06T04:57:19.970Z,10.15
2023-05-06T04:58:52.910Z,6.53
2023-05-06T05:00:26.253Z,5.70
2023-05-06T05:01:57.835Z,6.95
2023-05-06T05:03:29.520Z,6.28
2023-05-06T05:05:01.277Z,5.93
2023-05-06T05:06:33.470Z,5.78
2023-05-06T05:08:05.828Z,7.40
2023-05-06T05:09:37.522Z,8.80
2023-05-06T05:11:09.221Z,6.20
2023-05-06T05:12:40.934Z,6.00
2023-05-06T05:14:14.022Z,7.75
2023-05-06T05:15:45.647Z,7.28
2023-05-06T05:17:17.629Z,6.07
2023-05-06T05:18:49.284Z,6.65
2023-05-06T05:20:21.240Z,6.50
2023-05-06T05:21:52.842Z,6.63
2023-05-06T05:23:24.468Z,11.45
2023-05-06T05:24:56.099Z,8.65
2023-05-06T05:26:27.975Z,9.40
2023-05-06T05:27:59.610Z,6.95
2023-05-06T05:29:32.868Z,6.30
2023-05-06T05:31:04.664Z,7.45
2023-05-06T05:32:36.415Z,9.00
2023-05-06T05:34:08.204Z,8.15
2023-05-06T05:35:39.831Z,8.13
2023-05-06T05:37:11.573Z,7.75
2023-05-06T05:38:43.286Z,9.10
2023-05-06T05:40:14.931Z,10.50
2023-05-06T05:41:46.741Z,11.30
2023-05-06T05:43:19.235Z,8.75
2023-05-06T05:44:52.201Z,10.70
2023-05-06T05:46:23.973Z,8.35
2023-05-06T05:47:55.784Z,10.27
2023-05-06T05:49:27.658Z,11.07
2023-05-06T05:51:00.047Z,9.35
2023-05-06T05:52:31.689Z,10.63
2023-05-06T05:54:03.466Z,9.30
2023-05-06T05:55:35.105Z,8.80
2023-05-06T05:57:06.716Z,8.60
2023-05-06T05:58:38.621Z,9.00
2023-05-06T06:00:13.611Z,8.45
2023-05-06T06:01:45.493Z,10.13
2023-05-06T06:03:17.828Z,10.60
2023-05-06T06:04:49.767Z,10.00
2023-05-06T06:06:21.422Z,10.82
2023-05-06T06:07:53.152Z,10.40
2023-05-06T06:09:24.841Z,11.13
2023-05-06T06:10:56.569Z,10.10
2023-05-06T06:12:28.188Z,11.15
2023-05-06T06:13:59.837Z,10.48
2023-05-06T06:15:32.796Z,9.93
2023-05-06T06:17:04.542Z,10.45
2023-05-06T06:18:36.316Z,9.70
2023-05-06T06:20:09.103Z,11.60
2023-05-06T06:21:40.771Z,10.55
2023-05-06T06:23:12.454Z,11.48
2023-05-06T06:24:46.921Z,9.98
2023-05-06T06:26:18.598Z,12.00
2023-05-06T06:27:50.405Z,10.73
2023-05-06T06:29:22.032Z,9.82
2023-05-06T06:30:55.077Z,9.68
2023-05-06T06:32:26.721Z,12.57
2023-05-06T06:33:58.663Z,12.65
2023-05-06T06:35:30.414Z,13.13
2023-05-06T06:37:02.264Z,12.50
2023-05-06T06:38:33.958Z,14.27
2023-05-06T06:40:07.016Z,12.77
2023-05-06T06:41:38.674Z,12.20
2023-05-06T06:43:10.359Z,14.73
2023-05-06T06:44:42.031Z,13.95
2023-05-06T06:46:15.078Z,17.27
2023-05-06T06:47:46.770Z,14.15
2023-05-06T06:49:18.395Z,15.07
2023-05-06T06:50:50.308Z,15.82
2023-05-06T06:52:21.941Z,14.00
2023-05-06T06:53:53.590Z,16.55
2023-05-06T06:55:25.320Z,15.73
2023-05-06T06:56:57.426Z,15.00
2023-05-06T06:58:29.047Z,13.23
2023-05-06T07:00:00.644Z,12.13
2023-05-06T07:01:33.789Z,14.05
2023-05-06T07:03:05.820Z,14.32
2023-05-06T07:04:37.538Z,15.57
2023-05-06T07:06:09.170Z,14.32
2023-05-06T07:07:40.836Z,15.23
2023-05-06T07:09:13.330Z,15.18
2023-05-06T07:10:44.941Z,14.68
2023-05-06T07:12:16.576Z,13.32
2023-05-06T07:13:48.224Z,13.40
2023-05-06T07:15:19.996Z,14.05
2023-05-06T07:16:53.021Z,11.60
2023-05-06T07:18:24.787Z,12.25
2023-05-06T07:19:56.412Z,13.18
2023-05-06T07:21:28.177Z,12.10
2023-05-06T07:22:59.857Z,11.13
2023-05-06T07:24:31.563Z,12.20
2023-05-06T07:26:03.184Z,11.48
2023-05-06T07:27:34.913Z,11.00
2023-05-06T07:29:06.563Z,9.82
2023-05-06T07:30:38.607Z,10.98
2023-05-06T07:32:11.645Z,9.73
2023-05-06T07:33:43.380Z,9.10
2023-05-06T07:35:15.004Z,8.30
2023-05-06T07:36:46.604Z,6.63
2023-05-06T07:38:20.699Z,7.65
2023-05-06T07:39:52.474Z,7.10
2023-05-06T07:41:24.095Z,7.13
2023-05-06T07:42:55.796Z,7.00
2023-05-06T07:44:27.407Z,6.90
2023-05-06T07:46:02.934Z,8.15
2023-05-06T07:47:36.550Z,12.15
2023-05-06T07:49:08.284Z,13.77
2023-05-06T07:50:39.916Z,15.23
2023-05-06T07:52:11.558Z,13.95
2023-05-06T07:53:43.266Z,12.90
2023-05-06T07:55:15.202Z,12.50
2023-05-06T07:56:46.816Z,12.20
2023-05-06T07:58:18.495Z,11.88
2023-05-06T07:59:52.337Z,11.07
2023-05-06T08:01:24.020Z,12.88
2023-05-06T08:02:57.123Z,11.88
2023-05-06T08:04:28.838Z,10.52
2023-05-06T08:06:00.642Z,10.73
2023-05-06T08:07:35.287Z,11.50
2023-05-06T08:09:06.938Z,10.18
2023-05-06T08:10:38.591Z,9.77
2023-05-06T08:12:10.606Z,9.60
2023-05-06T08:13:42.334Z,8.48
2023-05-06T08:15:14.060Z,10.88
2023-05-06T08:16:45.912Z,8.32
2023-05-06T08:18:22.863Z,7.28
2023-05-06T08:19:55.553Z,6.78
2023-05-06T08:21:27.748Z,6.28
2023-05-06T08:23:00.986Z,6.20
2023-05-06T08:24:32.640Z,5.93
2023-05-06T08:26:04.426Z,6.28
2023-05-06T08:27:36.269Z,5.93
2023-05-06T08:29:08.154Z,5.18
2023-05-06T08:30:39.817Z,5.80
2023-05-06T08:32:11.438Z,5.25
2023-05-06T08:33:44.463Z,5.38
2023-05-06T08:35:16.175Z,5.50
2023-05-06T08:36:48.225Z,5.53
2023-05-06T08:38:19.851Z,5.95
2023-05-06T08:39:51.503Z,5.25
2023-05-06T08:41:23.452Z,5.55
2023-05-06T08:42:55.537Z,5.35
2023-05-06T08:44:27.385Z,5.90
2023-05-06T08:45:59.128Z,5.75
2023-05-06T08:47:30.761Z,4.80
2023-05-06T08:49:03.820Z,5.82
2023-05-06T08:50:35.588Z,6.32
2023-05-06T08:52:07.274Z,6.93
2023-05-06T08:53:38.893Z,6.65
2023-05-06T08:55:10.708Z,6.90
2023-05-06T08:56:45.189Z,8.35
2023-05-06T08:58:16.930Z,7.00
2023-05-06T08:59:48.633Z,5.97
2023-05-06T09:01:20.565Z,5.70
2023-05-06T09:02:52.728Z,5.90
2023-05-06T09:04:25.982Z,5.38
2023-05-06T09:05:57.999Z,6.05
2023-05-06T09:07:29.592Z,5.75
2023-05-06T09:09:01.396Z,5.63
2023-05-06T09:10:33.532Z,8.43
2023-05-06T09:12:09.592Z,6.88
2023-05-06T09:13:41.238Z,7.72
2023-05-06T09:15:13.143Z,6.60
2023-05-06T09:16:45.585Z,8.40
2023-05-06T09:18:17.285Z,8.45
2023-05-06T09:19:51.756Z,7.57
2023-05-06T09:21:38.272Z,6.32
2023-05-06T09:23:10.328Z,6.95
2023-05-06T09:24:41.986Z,8.80
2023-05-06T09:26:13.693Z,9.20
2023-05-06T09:27:45.307Z,6.97
2023-05-06T09:29:16.972Z,6.97
2023-05-06T09:30:48.687Z,6.28
2023-05-06T09:32:20.349Z,6.10
2023-05-06T09:33:52.007Z,6.45
2023-05-06T09:35:28.985Z,6.40
2023-05-06T09:37:01.043Z,5.63
2023-05-06T09:38:32.701Z,7.72
2023-05-06T09:40:05.240Z,7.85
2023-05-06T09:41:36.853Z,7.55
2023-05-06T09:43:09.985Z,6.93
2023-05-06T09:44:41.658Z,6.45
2023-05-06T09:46:13.438Z,6.30
2023-05-06T09:47:45.950Z,5.78
2023-05-06T09:49:17.572Z,5.72
2023-05-06T09:50:50.562Z,6.07
2023-05-06T09:52:23.207Z,6.63
2023-05-06T09:53:54.970Z,5.60
2023-05-06T09:55:27.206Z,5.35
2023-05-06T09:57:00.898Z,4.80
2023-05-06T09:58:33.391Z,5.00
2023-05-06T10:00:07.230Z,5.00
2023-05-06T10:01:38.892Z,4.40
2023-05-06T10:03:11.781Z,3.97
2023-05-06T10:04:44.678Z,4.45
2023-05-06T10:06:17.906Z,4.28
2023-05-06T10:07:49.863Z,5.15
2023-05-06T10:09:21.713Z,5.40
2023-05-06T10:10:53.574Z,6.70
2023-05-06T10:12:25.635Z,5.88
2023-05-06T10:13:57.212Z,5.75
2023-05-06T10:15:28.889Z,5.88
2023-05-06T10:17:00.542Z,6.10
2023-05-06T10:18:32.130Z,6.03
2023-05-06T10:20:04.822Z,6.00
2023-05-06T10:21:39.522Z,5.97
2023-05-06T10:23:14.025Z,7.07
2023-05-06T10:24:47.504Z,7.50
2023-05-06T10:26:19.807Z,6.15
2023-05-06T10:27:51.475Z,6.80
2023-05-06T10:29:23.470Z,6.80
2023-05-06T10:30:55.195Z,5.50
2023-05-06T10:32:27.581Z,4.95
2023-05-06T10:34:00.575Z,4.82
2023-05-06T10:35:36.394Z,8.27
2023-05-06T10:37:09.341Z,9.07
2023-05-06T10:38:42.617Z,7.93
2023-05-06T10:40:14.230Z,6.75
2023-05-06T10:41:45.924Z,6.80
2023-05-06T10:43:24.731Z,7.25
2023-05-06T10:44:56.903Z,5.75
2023-05-06T10:46:29.165Z,4.97
2023-05-06T10:48:08.683Z,4.70
2023-05-06T10:49:40.394Z,4.55
2023-05-06T10:51:21.942Z,5.43
2023-05-06T10:52:55.684Z,5.40
2023-05-06T10:54:27.392Z,4.90
2023-05-06T10:56:07.253Z,4.80
2023-05-06T10:57:40.891Z,4.97
2023-05-06T10:59:12.815Z,3.83
2023-05-06T11:00:53.473Z,3.90
2023-05-06T11:02:25.503Z,3.45
2023-05-06T11:03:57.438Z,3.50
2023-05-06T11:05:29.062Z,3.97
2023-05-06T11:07:07.365Z,3.65
2023-05-06T11:08:40.402Z,3.65
2023-05-06T11:10:12.216Z,3.40
2023-05-06T11:11:47.984Z,3.58
2023-05-06T11:13:23.966Z,3.40
2023-05-06T11:14:55.758Z,3.50
2023-05-06T11:16:48.484Z,3.72
2023-05-06T11:18:42.368Z,5.00
2023-05-06T11:20:21.299Z,4.00
2023-05-06T11:21:53.338Z,3.85
2023-05-06T11:23:37.540Z,3.10
2023-05-06T11:25:10.553Z,3.00
2023-05-06T11:26:42.564Z,3.47
2023-05-06T11:28:15.882Z,3.53
2023-05-06T11:29:47.670Z,3.38
2023-05-06T11:31:19.537Z,3.30
2023-05-06T11:32:51.313Z,3.40
2023-05-06T11:34:24.932Z,3.40
2023-05-06T11:35:56.562Z,3.35
2023-05-06T11:37:28.801Z,3.28
2023-05-06T11:39:07.744Z,3.35
2023-05-06T11:40:42.912Z,3.95
2023-05-06T11:42:15.826Z,3.20
2023-05-06T11:43:47.664Z,3.22
2023-05-06T11:45:20.108Z,2.80
2023-05-06T11:46:52.449Z,3.20
2023-05-06T11:48:24.090Z,3.00
2023-05-06T11:49:59.024Z,2.90
2023-05-06T11:51:33.627Z,2.78
2023-05-06T11:53:05.386Z,2.97
2023-05-06T11:54:38.791Z,2.60
2023-05-06T11:56:12.157Z,3.20
2023-05-06T11:57:44.987Z,2.80
2023-05-06T11:59:19.743Z,2.53
2023-05-06T12:00:53.477Z,2.50
2023-05-06T12:02:25.183Z,2.58
2023-05-06T12:03:57.126Z,2.63
2023-05-06T12:05:31.122Z,3.00
2023-05-06T12:07:02.877Z,2.90
2023-05-06T12:08:35.186Z,3.17
2023-05-06T12:10:08.548Z,3.08
2023-05-06T12:11:44.336Z,3.70
2023-05-06T12:13:19.273Z,3.20
2023-05-06T12:14:50.999Z,3.30
2023-05-06T12:16:23.762Z,3.00
2023-05-06T12:17:55.549Z,2.50
2023-05-06T12:19:28.316Z,2.60
2023-05-06T12:21:02.513Z,2.50
2023-05-06T12:22:34.155Z,2.67
2023-05-06T12:24:06.360Z,2.70
2023-05-06T12:25:38.151Z,2.75
2023-05-06T12:27:11.179Z,2.47
2023-05-06T12:29:07.478Z,2.60
2023-05-06T12:30:39.369Z,2.42
2023-05-06T12:32:11.458Z,2.30
2023-05-06T12:33:46.526Z,2.50
2023-05-06T12:35:25.126Z,2.47
2023-05-06T12:36:56.763Z,2.50
2023-05-06T12:38:28.330Z,2.70
2023-05-06T12:39:59.982Z,2.40
2023-05-06T12:41:37.338Z,2.17
2023-05-06T12:43:10.561Z,2.33
2023-05-06T12:44:42.226Z,2.53
2023-05-06T12:46:14.905Z,2.20
2023-05-06T12:47:53.641Z,2.50
2023-05-06T12:49:25.870Z,2.42
2023-05-06T12:50:57.575Z,2.40
2023-05-06T12:52:30.106Z,2.33
2023-05-06T12:54:01.916Z,2.30
2023-05-06T12:55:33.679Z,2.40
2023-05-06T12:57:05.351Z,2.33
2023-05-06T12:58:39.641Z,2.17
2023-05-06T13:00:12.850Z,2.20
2023-05-06T13:01:44.598Z,2.00
2023-05-06T13:03:16.444Z,2.17
2023-05-06T13:04:49.064Z,2.20
2023-05-06T13:06:20.785Z,2.15
2023-05-06T13:07:53.963Z,2.42
2023-05-06T13:09:25.977Z,2.13
2023-05-06T13:10:59.614Z,2.25
2023-05-06T13:12:31.281Z,3.45
2023-05-06T13:14:04.235Z,2.30
2023-05-06T13:15:36.448Z,2.20
2023-05-06T13:17:08.285Z,2.17
2023-05-06T13:18:39.912Z,2.30
2023-05-06T13:20:13.668Z,2.20
2023-05-06T13:21:46.416Z,2.20
2023-05-06T13:23:19.349Z,2.50
2023-05-06T13:24:51.039Z,2.40
2023-05-06T13:26:22.685Z,2.30
2023-05-06T13:27:54.365Z,2.30
2023-05-06T13:29:27.567Z,2.30
2023-05-06T13:30:59.323Z,2.30
2023-05-06T13:32:31.140Z,2.40
2023-05-06T13:34:02.827Z,2.40
2023-05-06T13:35:34.480Z,2.10
2023-05-06T13:37:06.357Z,2.00
2023-05-06T13:38:37.994Z,2.13
2023-05-06T13:40:10.928Z,2.15
2023-05-06T13:41:42.843Z,2.17
2023-05-06T13:43:15.663Z,1.90
2023-05-06T13:44:48.616Z,2.30
2023-05-06T13:46:20.358Z,2.40
2023-05-06T13:47:52.052Z,1.90
2023-05-06T13:49:23.691Z,1.90
2023-05-06T13:50:55.338Z,2.30
2023-05-06T13:52:27.158Z,2.40
2023-05-06T13:53:58.771Z,1.80
2023-05-06T13:55:30.462Z,2.00
2023-05-06T13:57:02.807Z,1.88
2023-05-06T13:58:34.571Z,2.00
2023-05-06T14:00:10.865Z,1.90
2023-05-06T14:01:42.598Z,1.70
2023-05-06T14:03:14.252Z,1.70
2023-05-06T14:04:46.053Z,1.60
2023-05-06T14:06:17.708Z,2.25
2023-05-06T14:07:49.280Z,1.40
2023-05-06T14:09:20.937Z,1.40
2023-05-06T14:10:52.583Z,1.63
2023-05-06T14:12:24.727Z,1.60
2023-05-06T14:13:57.247Z,1.50
2023-05-06T14:15:30.174Z,1.60
2023-05-06T14:17:01.743Z,1.70
2023-05-06T14:18:33.649Z,1.50
2023-05-06T14:20:06.668Z,1.50
2023-05-06T14:21:38.312Z,1.60
2023-05-06T14:23:09.906Z,1.50
2023-05-06T14:24:41.488Z,1.60
2023-05-06T14:26:14.127Z,1.50
2023-05-06T14:27:46.020Z,1.40
2023-05-06T14:29:17.680Z,1.60
2023-05-06T14:30:51.639Z,1.30
2023-05-06T14:32:23.308Z,1.40
2023-05-06T14:34:08.595Z,1.65
2023-05-06T14:35:40.973Z,1.50
2023-05-06T14:37:12.631Z,1.55
2023-05-06T14:38:44.202Z,1.40
2023-05-06T14:40:16.010Z,1.60
2023-05-06T14:41:47.662Z,1.70
2023-05-06T14:43:19.251Z,1.40
2023-05-06T14:44:50.942Z,1.77
2023-05-06T14:46:25.345Z,1.50
2023-05-06T14:47:58.163Z,1.50
2023-05-06T14:49:29.891Z,1.58
2023-05-06T14:51:01.528Z,1.50
2023-05-06T14:52:33.124Z,1.70
2023-05-06T14:54:04.906Z,1.67
2023-05-06T14:55:37.475Z,1.52
2023-05-06T14:57:09.212Z,1.58
2023-05-06T14:58:41.363Z,1.40
2023-05-06T15:00:14.950Z,1.67
2023-05-06T15:01:48.322Z,1.45
2023-05-06T15:03:20.028Z,1.50
2023-05-06T15:04:51.941Z,1.58
2023-05-06T15:06:23.779Z,1.42
2023-05-06T15:07:55.553Z,1.42
2023-05-06T15:09:27.290Z,1.80
2023-05-06T15:10:58.958Z,1.48
2023-05-06T15:12:30.571Z,1.67
2023-05-06T15:14:02.306Z,1.60
2023-05-06T15:15:33.937Z,1.65
2023-05-06T15:17:07.022Z,1.60
2023-05-06T15:18:41.702Z,1.85
2023-05-06T15:20:13.457Z,1.60
2023-05-06T15:21:45.076Z,1.70
2023-05-06T15:23:16.763Z,1.60
2023-05-06T15:24:48.730Z,1.75
2023-05-06T15:26:21.461Z,1.60
2023-05-06T15:27:54.101Z,1.80
2023-05-06T15:29:26.212Z,1.70
2023-05-06T15:30:58.393Z,1.63
2023-05-06T15:32:33.477Z,1.80
2023-05-06T15:34:05.765Z,1.80
2023-05-06T15:35:37.365Z,1.70
2023-05-06T15:37:10.358Z,1.70
2023-05-06T15:38:57.138Z,1.70
2023-05-06T15:40:31.140Z,1.90
2023-05-06T15:42:02.811Z,1.73
2023-05-06T15:43:37.953Z,1.60
2023-05-06T15:45:12.197Z,1.67
2023-05-06T15:46:43.952Z,1.75
2023-05-06T15:48:16.975Z,1.70
2023-05-06T15:49:54.444Z,1.50
2023-05-06T15:51:26.588Z,1.60
2023-05-06T15:52:58.182Z,1.88
2023-05-06T15:54:31.556Z,1.85
2023-05-06T15:56:13.039Z,1.80
2023-05-06T15:57:48.244Z,1.80
2023-05-06T15:59:19.892Z,1.70
2023-05-06T16:00:51.536Z,1.50
2023-05-06T16:02:27.166Z,1.92
2023-05-06T16:04:00.638Z,1.92
2023-05-06T16:05:32.415Z,1.83
2023-05-06T16:07:04.021Z,1.98
2023-05-06T16:08:35.735Z,1.70
2023-05-06T16:10:08.392Z,1.75
2023-05-06T16:11:40.084Z,1.80
2023-05-06T16:13:11.754Z,1.60
2023-05-06T16:14:44.186Z,1.63
2023-05-06T16:16:16.121Z,1.67
2023-05-06T16:17:47.806Z,1.73
2023-05-06T16:19:21.044Z,1.60
2023-05-06T16:20:54.356Z,1.80
2023-05-06T16:22:26.214Z,1.70
2023-05-06T16:23:57.892Z,1.70
2023-05-06T16:25:29.572Z,1.40
2023-05-06T16:27:01.788Z,1.70
2023-05-06T16:28:33.590Z,1.60
2023-05-06T16:30:06.419Z,1.40
2023-05-06T16:31:38.337Z,1.60
2023-05-06T16:33:10.851Z,1.60
2023-05-06T16:34:43.989Z,1.60
2023-05-06T16:36:17.518Z,2.00
2023-05-06T16:37:49.307Z,1.70
2023-05-06T16:39:20.935Z,1.70
2023-05-06T16:40:52.580Z,1.95
2023-05-06T16:42:24.293Z,2.10
2023-05-06T16:43:56.039Z,1.80
2023-05-06T16:45:27.785Z,1.85
2023-05-06T16:46:59.462Z,1.70
2023-05-06T16:48:31.184Z,1.60
2023-05-06T16:50:07.584Z,1.73
2023-05-06T16:51:54.532Z,1.92
2023-05-06T16:53:27.794Z,1.90
2023-05-06T16:55:04.986Z,3.00
2023-05-06T16:56:48.065Z,2.35
2023-05-06T16:58:23.702Z,2.20
2023-05-06T16:59:55.617Z,1.80
2023-05-06T17:01:27.424Z,1.88
2023-05-06T17:02:59.265Z,1.63
2023-05-06T17:04:31.053Z,1.75
2023-05-06T17:06:04.309Z,1.85
2023-05-06T17:07:36.024Z,1.50
2023-05-06T17:09:07.795Z,1.70
2023-05-06T17:10:39.485Z,2.30
2023-05-06T17:12:11.193Z,2.00
2023-05-06T17:13:42.791Z,1.70
2023-05-06T17:15:14.555Z,1.70
2023-05-06T17:16:47.029Z,1.90
2023-05-06T17:18:18.671Z,1.92
2023-05-06T17:19:50.500Z,2.20
2023-05-06T17:21:23.780Z,2.30
2023-05-06T17:22:55.477Z,2.30
2023-05-06T17:24:27.244Z,2.10
2023-05-06T17:25:59.102Z,1.98
2023-05-06T17:27:30.774Z,1.90
2023-05-06T17:29:02.605Z,2.00
2023-05-06T17:30:34.476Z,2.50
2023-05-06T17:32:06.311Z,2.45
2023-05-06T17:33:37.950Z,3.00
2023-05-06T17:35:10.268Z,2.58
2023-05-06T17:36:43.488Z,2.30
2023-05-06T17:38:16.797Z,2.00
2023-05-06T17:39:48.432Z,2.03
2023-05-06T17:41:20.051Z,2.00
2023-05-06T17:42:51.805Z,2.15
2023-05-06T17:44:23.408Z,3.97
2023-05-06T17:45:55.224Z,3.42
2023-05-06T17:47:29.939Z,3.15
2023-05-06T17:49:01.789Z,2.92
2023-05-06T17:50:33.729Z,2.83
2023-05-06T17:52:06.778Z,4.07
2023-05-06T17:53:38.716Z,3.35
2023-05-06T17:55:16.311Z,2.60
2023-05-06T17:56:52.913Z,2.70
2023-05-06T17:58:24.635Z,2.58
2023-05-06T17:59:56.274Z,2.38
2023-05-06T18:01:27.928Z,2.65
2023-05-06T18:02:59.723Z,2.83
2023-05-06T18:04:31.434Z,2.80
2023-05-06T18:06:03.238Z,2.50
2023-05-06T18:07:36.343Z,2.60
2023-05-06T18:09:08.434Z,2.45
2023-05-06T18:10:41.296Z,2.53
2023-05-06T18:12:13.313Z,2.22
2023-05-06T18:13:44.948Z,2.22
2023-05-06T18:15:16.658Z,2.40
2023-05-06T18:16:48.333Z,2.53
2023-05-06T18:18:20.016Z,2.30
2023-05-06T18:19:52.425Z,2.40
2023-05-06T18:21:24.059Z,2.40
2023-05-06T18:22:58.173Z,2.30
2023-05-06T18:24:29.854Z,2.30
2023-05-06T18:26:03.555Z,2.42
2023-05-06T18:27:35.180Z,2.30
2023-05-06T18:29:06.980Z,2.55
2023-05-06T18:30:38.649Z,2.50
2023-05-06T18:32:10.390Z,2.50
2023-05-06T18:33:42.077Z,2.53
2023-05-06T18:35:13.847Z,2.17
2023-05-06T18:36:45.664Z,2.50
2023-05-06T18:38:18.770Z,2.47
2023-05-06T18:39:51.457Z,2.50
2023-05-06T18:41:23.120Z,2.60
2023-05-06T18:42:56.574Z,2.35
2023-05-06T18:44:28.296Z,2.65
2023-05-06T18:46:00.047Z,2.70
2023-05-06T18:47:32.493Z,2.53
2023-05-06T18:49:04.166Z,2.33
2023-05-06T18:50:46.307Z,2.58
2023-05-06T18:52:18.195Z,2.40
2023-05-06T18:53:51.238Z,2.50
2023-05-06T18:55:23.079Z,2.20
2023-05-06T18:56:54.910Z,2.00
2023-05-06T18:58:26.746Z,2.40
2023-05-06T18:59:58.374Z,2.40
2023-05-06T19:01:30.279Z,2.40
2023-05-06T19:03:02.540Z,2.22
2023-05-06T19:04:34.376Z,2.15
2023-05-06T19:06:09.087Z,2.17
2023-05-06T19:07:40.745Z,2.40
2023-05-06T19:09:14.126Z,2.35
2023-05-06T19:10:46.268Z,2.33
2023-05-06T19:12:18.374Z,2.50
2023-05-06T19:13:50.079Z,2.40
2023-05-06T19:15:22.342Z,2.40
2023-05-06T19:16:57.271Z,2.22
2023-05-06T19:18:39.825Z,2.40
2023-05-06T19:20:12.019Z,2.35
2023-05-06T19:21:44.242Z,2.42
2023-05-06T19:23:15.958Z,2.35
2023-05-06T19:24:49.133Z,2.20
2023-05-06T19:26:21.219Z,2.20
2023-05-06T19:27:54.702Z,2.45
2023-05-06T19:29:26.551Z,2.10
2023-05-06T19:30:58.301Z,2.30
2023-05-06T19:32:31.508Z,2.50
2023-05-06T19:34:14.336Z,2.30
2023-05-06T19:35:48.774Z,2.10
2023-05-06T19:37:20.489Z,2.60
2023-05-06T19:38:52.221Z,2.50
2023-05-06T19:40:25.586Z,2.55
2023-05-06T19:41:57.406Z,2.47
2023-05-06T19:43:29.178Z,2.60
2023-05-06T19:45:06.605Z,2.38
2023-05-06T19:46:38.366Z,2.50
2023-05-06T19:48:10.091Z,2.40
2023-05-06T19:49:44.675Z,2.40
2023-05-06T19:51:16.506Z,2.63
2023-05-06T19:52:48.204Z,2.33
2023-05-06T19:54:23.239Z,2.45
2023-05-06T19:55:59.104Z,2.70
2023-05-06T19:57:34.513Z,2.50
2023-05-06T19:59:08.340Z,2.80
2023-05-06T20:00:40.875Z,2.63
2023-05-06T20:02:13.595Z,2.63
2023-05-06T20:03:46.689Z,2.67
2023-05-06T20:05:18.504Z,2.70
2023-05-06T20:06:50.362Z,2.70
2023-05-06T20:08:27.839Z,2.85
2023-05-06T20:09:59.718Z,2.90
2023-05-06T20:11:33.118Z,2.72
2023-05-06T20:13:05.201Z,2.60
2023-05-06T20:14:36.929Z,3.05
2023-05-06T20:16:09.438Z,2.90
2023-05-06T20:17:41.117Z,2.70
2023-05-06T20:19:13.371Z,2.70
2023-05-06T20:20:46.190Z,3.00
2023-05-06T20:22:17.928Z,2.85
2023-05-06T20:23:49.782Z,2.50
2023-05-06T20:25:23.563Z,2.60
2023-05-06T20:26:58.913Z,2.63
2023-05-06T20:28:31.466Z,2.80